Time;durP1;ratioP1;P1;durP2;ratioP2;P2;SDS_P1;SDS_P2;PMS_P1;PMS_P2;Temp;Humidity;BMP_temperature;BMP_pressure;BME280_temperature;BME280_humidity;BME280_pressure;Samples;Min_cycle;Max_cycle;Signal;HPM_P1;HPM_P2
2023/11/15 00:00:33;;;;;;;;;;;;;;;4.52;72.77;98520.53;5088779;28;19947;-69
2023/11/15 00:02:59;;;;;;;;;;;;;;;4.49;71.88;98518.00;5087470;28;19943;-66
2023/11/15 00:05:25;;;;;;;;;;;;;;;4.51;72.08;98534.31;5089607;28;19960;-68
2023/11/15 00:07:54;;;;;;;;;;;;;;;4.56;72.01;98523.97;5087969;28;19963;-68
2023/11/15 00:10:22;;;;;;;;;;;;;;;4.58;72.23;98524.81;5085187;28;19928;-65
2023/11/15 00:12:48;;;;;;;;;;;;;;;4.61;72.48;98518.78;5091183;28;19926;-66
2023/11/15 00:15:14;;;;;;;;;;;;;;;4.62;71.66;98523.94;5124289;27;19920;-65
2023/11/15 00:17:41;;;;;;;;;;;;;;;4.62;71.50;98521.38;5084359;28;19955;-69
2023/11/15 00:20:08;;;;;;;;;;;;;;;4.60;72.01;98517.06;5082615;28;19924;-70
2023/11/15 00:22:33;;;;;;;;;;;;;;;4.57;72.48;98517.94;5085579;28;20009;-70
2023/11/15 00:24:59;;;;;;;;;;;;;;;4.56;72.60;98517.94;5084663;28;19959;-67
2023/11/15 00:27:26;;;;;;;;;;;;;;;4.52;71.69;98507.66;5085947;28;19924;-68
2023/11/15 00:29:52;;;;;;;;;;;;;;;4.45;71.59;98516.28;5066062;28;20465;-67
2023/11/15 00:32:19;;;;;;;;;;;;;;;4.43;71.79;98515.44;5085289;28;20102;-67
2023/11/15 00:34:45;;;;;;;;;;;;;;;4.41;71.95;98506.84;5067393;28;19920;-68
2023/11/15 00:37:11;;;;;;;;;;;;;;;4.41;71.36;98508.59;5085348;28;19919;-67
2023/11/15 00:39:40;;;;;;;;;;;;;;;4.29;72.23;98491.47;5084584;28;19924;-67
2023/11/15 00:42:07;;;;;;;;;;;;;;;4.36;72.34;98501.72;5066090;28;19947;-67
2023/11/15 00:44:33;;;;;;;;;;;;;;;4.37;72.79;98505.16;5067306;28;19990;-66
2023/11/15 00:46:59;;;;;;;;;;;;;;;4.41;71.82;98503.44;5122147;27;19920;-67
2023/11/15 00:49:25;;;;;;;;;;;;;;;4.43;72.41;98501.69;5087629;28;19931;-65
2023/11/15 00:51:51;;;;;;;;;;;;;;;4.41;71.62;98500.88;5082791;28;19928;-66
2023/11/15 00:54:17;;;;;;;;;;;;;;;4.39;72.57;98500.00;5066313;28;19924;-66
2023/11/15 00:56:43;;;;;;;;;;;;;;;4.37;71.96;98497.41;5091869;28;19924;-66
2023/11/15 00:59:09;;;;;;;;;;;;;;;4.36;71.94;98498.28;5122880;27;20306;-66
2023/11/15 01:01:36;;;;;;;;;;;;;;;4.32;71.95;98492.28;5083788;28;20309;-67
2023/11/15 01:04:05;;;;;;;;;;;;;;;4.29;71.60;98500.03;5085847;28;19924;-66
2023/11/15 01:06:31;;;;;;;;;;;;;;;4.27;71.74;98496.59;5083771;28;19920;-67
2023/11/15 01:08:57;;;;;;;;;;;;;;;4.28;72.38;98502.63;5082984;28;19927;-70
2023/11/15 01:11:26;;;;;;;;;;;;;;;4.26;72.30;98501.78;5121723;27;19946;-67
2023/11/15 01:13:53;;;;;;;;;;;;;;;4.27;71.36;98491.47;5104525;28;19924;-68
2023/11/15 01:16:23;;;;;;;;;;;;;;;4.29;71.43;98505.19;5086721;28;20495;-67
2023/11/15 01:18:49;;;;;;;;;;;;;;;4.29;72.20;98502.63;5057865;28;19931;-67
2023/11/15 01:21:18;;;;;;;;;;;;;;;4.32;72.81;98496.56;5092606;28;20026;-67
2023/11/15 01:23:44;;;;;;;;;;;;;;;4.33;71.52;98501.75;5073525;28;19924;-66
2023/11/15 01:26:10;;;;;;;;;;;;;;;4.36;72.44;98493.13;5094139;27;19923;-67
2023/11/15 01:28:36;;;;;;;;;;;;;;;4.34;71.83;98500.88;5091334;28;19928;-66
2023/11/15 01:31:02;;;;;;;;;;;;;;;4.28;71.73;98493.16;5093144;28;20022;-65
2023/11/15 01:33:28;;;;;;;;;;;;;;;4.28;72.08;98494.91;5091029;28;20010;-65
2023/11/15 01:35:54;;;;;;;;;;;;;;;4.31;71.89;98494.88;5070798;28;19946;-65
2023/11/15 01:38:20;;;;;;;;;;;;;;;4.18;72.02;98476.06;5060541;28;19924;-66
2023/11/15 01:40:48;;;;;;;;;;;;;;;4.28;72.11;98500.06;5093824;28;20037;-66
2023/11/15 01:43:17;;;;;;;;;;;;;;;4.23;72.13;98492.31;5071621;28;20396;-67
2023/11/15 01:45:46;;;;;;;;;;;;;;;4.19;71.38;98486.34;5092466;28;19984;-67
2023/11/15 01:48:13;;;;;;;;;;;;;;;4.20;71.75;98484.59;5091057;28;19931;-67
2023/11/15 01:50:39;;;;;;;;;;;;;;;4.22;72.24;98481.19;5091589;28;19924;-67
2023/11/15 01:53:07;;;;;;;;;;;;;;;4.30;72.18;98482.88;5090330;28;19980;-66
2023/11/15 01:55:32;;;;;;;;;;;;;;;4.36;72.10;98488.84;5064038;28;20055;-67
2023/11/15 01:57:58;;;;;;;;;;;;;;;4.42;72.10;98493.13;5083285;28;20014;-66
2023/11/15 02:00:24;;;;;;;;;;;;;;;4.46;71.90;98487.09;5083042;28;19943;-67
2023/11/15 02:02:50;;;;;;;;;;;;;;;4.48;71.49;98493.09;5090416;28;19923;-66
2023/11/15 02:05:16;;;;;;;;;;;;;;;4.51;71.86;98487.94;5110935;27;20073;-67
2023/11/15 02:07:42;;;;;;;;;;;;;;;4.49;71.43;98493.94;5092266;28;20399;-66
2023/11/15 02:10:09;;;;;;;;;;;;;;;4.49;71.79;98496.50;5091520;28;19923;-67
2023/11/15 02:12:35;;;;;;;;;;;;;;;4.54;72.38;98499.91;5097982;28;19924;-66
2023/11/15 02:15:01;;;;;;;;;;;;;;;4.53;71.41;98493.91;5093536;28;19964;-66
2023/11/15 02:17:28;;;;;;;;;;;;;;;4.54;71.54;98502.50;5071599;28;19955;-68
2023/11/15 02:19:54;;;;;;;;;;;;;;;4.55;71.85;98505.91;5071824;28;19951;-67
2023/11/15 02:22:20;;;;;;;;;;;;;;;4.53;71.67;98505.94;5089092;28;20332;-65
2023/11/15 02:24:45;;;;;;;;;;;;;;;4.50;71.87;98505.94;5073256;28;20022;-66
2023/11/15 02:27:12;;;;;;;;;;;;;;;4.45;71.74;98505.97;5088414;28;20439;-67
2023/11/15 02:29:39;;;;;;;;;;;;;;;4.43;71.63;98510.28;5090156;28;19939;-66
2023/11/15 02:32:05;;;;;;;;;;;;;;;4.39;72.04;98513.72;5079517;28;19924;-65
2023/11/15 02:34:31;;;;;;;;;;;;;;;4.37;71.39;98515.44;5088960;28;19920;-67
2023/11/15 02:36:57;;;;;;;;;;;;;;;4.34;71.91;98521.47;5063034;28;19977;-68
2023/11/15 02:39:23;;;;;;;;;;;;;;;4.32;71.40;98527.47;5125922;27;19928;-65
2023/11/15 02:41:50;;;;;;;;;;;;;;;4.28;71.67;98528.38;5093628;28;20031;-66
2023/11/15 02:44:15;;;;;;;;;;;;;;;4.21;71.61;98533.53;5097124;28;19958;-66
2023/11/15 02:46:41;;;;;;;;;;;;;;;4.22;72.14;98536.97;5086547;28;20018;-66
2023/11/15 02:49:07;;;;;;;;;;;;;;;4.27;71.68;98531.81;5086472;28;20010;-65
2023/11/15 02:51:33;;;;;;;;;;;;;;;4.30;71.96;98534.38;5090256;28;19971;-66
2023/11/15 02:53:58;;;;;;;;;;;;;;;4.29;72.23;98530.09;5087723;28;20317;-65
2023/11/15 02:56:24;;;;;;;;;;;;;;;4.22;71.72;98537.84;5125053;27;20969;-66
2023/11/15 02:58:51;;;;;;;;;;;;;;;4.15;71.66;98535.28;5104066;27;20008;-65
2023/11/15 03:01:17;;;;;;;;;;;;;;;4.05;71.73;98542.19;5089786;28;19992;-67
2023/11/15 03:03:43;;;;;;;;;;;;;;;3.92;71.92;98544.78;5089144;28;20014;-66
2023/11/15 03:06:09;;;;;;;;;;;;;;;3.89;72.40;98543.94;5090058;28;20019;-67
2023/11/15 03:08:35;;;;;;;;;;;;;;;3.86;71.74;98549.91;5093596;28;20015;-65
2023/11/15 03:11:04;;;;;;;;;;;;;;;3.84;72.10;98543.06;5086375;27;19970;-65
2023/11/15 03:13:29;;;;;;;;;;;;;;;3.81;72.22;98549.09;5090233;28;21363;-66
2023/11/15 03:15:56;;;;;;;;;;;;;;;3.83;72.15;98549.94;5065942;28;19924;-66
2023/11/15 03:18:22;;;;;;;;;;;;;;;3.81;72.15;98543.94;5090512;28;20378;-67
2023/11/15 03:20:51;;;;;;;;;;;;;;;3.87;71.92;98540.50;5068992;28;19951;-65
2023/11/15 03:23:16;;;;;;;;;;;;;;;3.92;72.56;98539.63;5109245;27;19928;-68
2023/11/15 03:25:43;;;;;;;;;;;;;;;3.94;72.30;98539.63;5067700;28;20409;-66
2023/11/15 03:28:09;;;;;;;;;;;;;;;3.94;71.92;98538.75;5107512;27;19924;-65
2023/11/15 03:30:35;;;;;;;;;;;;;;;3.91;72.21;98542.22;5092599;28;19957;-67
2023/11/15 03:33:01;;;;;;;;;;;;;;;3.88;72.08;98540.47;5083606;28;19924;-68
2023/11/15 03:35:27;;;;;;;;;;;;;;;3.82;71.92;98539.66;5089724;28;19989;-65
2023/11/15 03:37:53;;;;;;;;;;;;;;;3.74;71.97;98535.38;5090767;28;19923;-66
2023/11/15 03:40:19;;;;;;;;;;;;;;;3.69;72.06;98534.53;5088759;28;19935;-67
2023/11/15 03:42:45;;;;;;;;;;;;;;;3.59;71.49;98531.09;5086181;28;19919;-66
2023/11/15 03:45:11;;;;;;;;;;;;;;;3.53;71.60;98533.69;5089836;28;19966;-66
2023/11/15 03:47:37;;;;;;;;;;;;;;;3.50;71.71;98532.84;5088287;28;19969;-64
2023/11/15 03:50:04;;;;;;;;;;;;;;;3.47;72.11;98541.38;5091890;28;19967;-65
2023/11/15 03:52:30;;;;;;;;;;;;;;;3.41;71.80;98541.41;5088382;28;21689;-65
2023/11/15 03:54:56;;;;;;;;;;;;;;;3.38;71.84;98549.97;5108064;27;20314;-66
2023/11/15 03:57:22;;;;;;;;;;;;;;;3.37;71.53;98548.25;5067287;28;19924;-67
2023/11/15 03:59:48;;;;;;;;;;;;;;;3.45;72.11;98548.25;5071987;28;20382;-66
2023/11/15 04:02:14;;;;;;;;;;;;;;;3.56;72.68;98551.69;5070065;28;19923;-65
2023/11/15 04:04:40;;;;;;;;;;;;;;;3.70;72.70;98550.81;5106713;27;20034;-65
2023/11/15 04:07:07;;;;;;;;;;;;;;;3.79;72.88;98543.09;5088890;28;19920;-66
2023/11/15 04:09:34;;;;;;;;;;;;;;;3.82;72.67;98552.50;5071902;28;19938;-66
2023/11/15 04:12:00;;;;;;;;;;;;;;;3.84;72.53;98545.66;5071680;28;20039;-66
2023/11/15 04:14:25;;;;;;;;;;;;;;;3.86;72.52;98542.19;5089424;28;20042;-67
2023/11/15 04:16:51;;;;;;;;;;;;;;;3.92;72.09;98549.06;5085963;28;19920;-65
2023/11/15 04:19:21;;;;;;;;;;;;;;;3.97;72.44;98551.63;5064333;28;20609;-64
2023/11/15 04:21:48;;;;;;;;;;;;;;;4.00;72.06;98549.91;5087592;28;20370;-67
2023/11/15 04:24:14;;;;;;;;;;;;;;;3.98;71.96;98543.06;5087873;28;19960;-65
2023/11/15 04:26:39;;;;;;;;;;;;;;;4.03;72.22;98549.06;5087902;28;19920;-66
2023/11/15 04:29:05;;;;;;;;;;;;;;;3.99;71.88;98545.59;5070026;28;20056;-65
2023/11/15 04:31:34;;;;;;;;;;;;;;;4.03;72.55;98542.16;5065085;28;19949;-67
2023/11/15 04:34:02;;;;;;;;;;;;;;;3.97;71.73;98547.34;5072179;28;19959;-65
2023/11/15 04:36:31;;;;;;;;;;;;;;;3.92;71.78;98542.19;5108734;28;20002;-66
2023/11/15 04:38:57;;;;;;;;;;;;;;;3.92;71.79;98549.06;5090786;28;19919;-66
2023/11/15 04:41:23;;;;;;;;;;;;;;;3.86;72.06;98552.50;5089532;28;19924;-66
2023/11/15 04:43:49;;;;;;;;;;;;;;;3.75;72.25;98541.38;5086224;28;19971;-65
2023/11/15 04:46:15;;;;;;;;;;;;;;;3.72;71.44;98543.94;5070949;28;20317;-65
2023/11/15 04:48:41;;;;;;;;;;;;;;;3.65;71.84;98540.53;5083541;28;19997;-65
2023/11/15 04:51:10;;;;;;;;;;;;;;;3.53;71.87;98546.53;5122135;27;19924;-67
2023/11/15 04:53:36;;;;;;;;;;;;;;;3.46;72.12;98552.53;5073855;28;19920;-66
2023/11/15 04:56:03;;;;;;;;;;;;;;;3.36;72.10;98546.53;5071589;28;19919;-65
2023/11/15 04:58:29;;;;;;;;;;;;;;;3.27;72.07;98557.69;5093306;28;19939;-65
2023/11/15 05:00:55;;;;;;;;;;;;;;;3.21;71.84;98554.25;5087315;28;19924;-65
2023/11/15 05:03:20;;;;;;;;;;;;;;;3.15;72.44;98560.25;5084824;28;19923;-67
2023/11/15 05:05:46;;;;;;;;;;;;;;;3.07;72.10;98560.25;5071552;28;19931;-64
2023/11/15 05:08:12;;;;;;;;;;;;;;;3.03;72.27;98561.09;5090797;28;20288;-68
2023/11/15 05:10:38;;;;;;;;;;;;;;;2.96;72.47;98565.38;5088852;28;19928;-66
2023/11/15 05:13:06;;;;;;;;;;;;;;;2.90;72.23;98569.59;5089775;28;19924;-65
2023/11/15 05:15:32;;;;;;;;;;;;;;;2.85;72.46;98562.75;5089657;28;19927;-66
2023/11/15 05:17:58;;;;;;;;;;;;;;;2.85;72.10;98567.03;5123062;27;19924;-67
2023/11/15 05:20:25;;;;;;;;;;;;;;;2.86;72.24;98571.31;5081294;28;20004;-66
2023/11/15 05:22:50;;;;;;;;;;;;;;;2.84;72.33;98580.72;5083127;28;19923;-65
2023/11/15 05:25:16;;;;;;;;;;;;;;;2.82;72.45;98577.28;5089973;28;19942;-64
2023/11/15 05:27:45;;;;;;;;;;;;;;;2.89;73.02;98578.16;5095942;28;19931;-66
2023/11/15 05:30:11;;;;;;;;;;;;;;;2.95;72.66;98583.34;5086524;28;19970;-65
2023/11/15 05:32:36;;;;;;;;;;;;;;;2.99;72.93;98579.91;5076510;28;19963;-66
2023/11/15 05:35:02;;;;;;;;;;;;;;;3.04;72.35;98579.91;5089920;28;20442;-67
2023/11/15 05:37:29;;;;;;;;;;;;;;;3.09;72.68;98584.22;5071564;28;20395;-66
2023/11/15 05:39:55;;;;;;;;;;;;;;;3.13;72.54;98585.09;5092150;28;20289;-66
2023/11/15 05:42:21;;;;;;;;;;;;;;;3.13;72.81;98578.22;5071894;28;19931;-67
2023/11/15 05:44:48;;;;;;;;;;;;;;;3.20;72.50;98580.81;5091159;28;20408;-66
2023/11/15 05:47:15;;;;;;;;;;;;;;;3.25;72.52;98579.97;5070160;28;19966;-66
2023/11/15 05:49:41;;;;;;;;;;;;;;;3.34;72.43;98584.25;5094208;28;19928;-67
2023/11/15 05:52:07;;;;;;;;;;;;;;;3.40;72.42;98591.13;5089773;28;19955;-65
2023/11/15 05:54:33;;;;;;;;;;;;;;;3.41;72.14;98593.69;5073829;28;20015;-66
2023/11/15 05:56:59;;;;;;;;;;;;;;;3.42;72.15;98587.69;5093316;28;19923;-66
2023/11/15 05:59:26;;;;;;;;;;;;;;;3.42;72.27;98592.00;5090335;28;19927;-66
2023/11/15 06:01:54;;;;;;;;;;;;;;;3.45;71.90;98595.41;5086208;28;20906;-67
2023/11/15 06:04:20;;;;;;;;;;;;;;;3.47;72.71;98593.72;5078659;28;19924;-66
2023/11/15 06:06:46;;;;;;;;;;;;;;;3.50;72.26;98592.84;5085231;28;20370;-66
2023/11/15 06:09:14;;;;;;;;;;;;;;;3.51;72.13;98598.84;5089815;28;19954;-66
2023/11/15 06:11:42;;;;;;;;;;;;;;;3.51;72.20;98589.41;5069484;28;19931;-67
2023/11/15 06:14:08;;;;;;;;;;;;;;;3.51;71.88;98599.69;5081893;28;20358;-68
2023/11/15 06:16:40;;;;;;;;;;;;;;;3.51;71.61;98594.56;5125575;27;19924;-66
2023/11/15 06:19:08;;;;;;;;;;;;;;;3.56;72.77;98597.13;5088374;28;19920;-66
2023/11/15 06:21:35;;;;;;;;;;;;;;;3.64;72.10;98600.56;5077237;28;19942;-66
2023/11/15 06:24:01;;;;;;;;;;;;;;;3.75;72.42;98600.56;5084573;28;19962;-65
2023/11/15 06:26:29;;;;;;;;;;;;;;;3.89;72.30;98603.13;5086261;28;20008;-66
2023/11/15 06:28:55;;;;;;;;;;;;;;;4.04;72.19;98603.09;5086142;28;19959;-66
2023/11/15 06:31:21;;;;;;;;;;;;;;;4.19;72.36;98599.66;5085680;28;20014;-66
2023/11/15 06:33:46;;;;;;;;;;;;;;;4.36;71.57;98606.47;5086065;28;19963;-66
2023/11/15 06:36:12;;;;;;;;;;;;;;;4.49;72.19;98609.88;5087093;28;20100;-66
2023/11/15 06:38:38;;;;;;;;;;;;;;;4.50;71.65;98607.31;5087337;28;19924;-66
2023/11/15 06:41:08;;;;;;;;;;;;;;;4.68;71.66;98610.66;5092294;28;20403;-66
2023/11/15 06:43:35;;;;;;;;;;;;;;;4.72;71.38;98609.78;5089470;28;21193;-67
2023/11/15 06:46:00;;;;;;;;;;;;;;;4.67;71.16;98611.53;5073402;28;20028;-65
2023/11/15 06:48:26;;;;;;;;;;;;;;;4.65;71.83;98615.81;5088557;28;20385;-66
2023/11/15 06:50:52;;;;;;;;;;;;;;;4.82;71.30;98606.28;5059659;28;19955;-66
2023/11/15 06:53:18;;;;;;;;;;;;;;;5.22;72.20;98606.94;5081347;28;19924;-67
2023/11/15 06:55:46;;;;;;;;;;;;;;;5.82;72.26;98613.41;5121499;27;19920;-66
2023/11/15 06:58:15;;;;;;;;;;;;;;;6.93;72.08;98598.44;5087926;28;19930;-66
2023/11/15 07:00:43;;;;;;;;;;;;;;;8.23;72.08;98592.97;5059425;28;19920;-66
2023/11/15 07:03:12;;;;;;;;;;;;;;;9.01;70.45;98582.78;5086762;28;19920;-66
2023/11/15 07:05:40;;;;;;;;;;;;;;;9.94;70.68;98584.91;5069484;28;19977;-66
2023/11/15 07:08:11;;;;;;;;;;;;;;;11.81;71.04;98576.03;5086562;28;20468;-66
2023/11/15 07:10:37;;;;;;;;;;;;;;;13.31;68.72;98568.91;5087945;28;20459;-67
2023/11/15 07:13:06;;;;;;;;;;;;;;;14.53;66.73;98565.59;5071210;28;19924;-65
2023/11/15 07:15:34;;;;;;;;;;;;;;;14.87;61.96;98570.16;5097711;27;20126;-66
2023/11/15 07:18:02;;;;;;;;;;;;;;;14.19;61.22;98567.91;5121121;27;19927;-66
2023/11/15 07:20:28;;;;;;;;;;;;;;;13.78;61.76;98566.16;5068434;28;19920;-66
2023/11/15 07:22:54;;;;;;;;;;;;;;;13.48;61.68;98571.75;5085657;28;19946;-65
2023/11/15 07:25:20;;;;;;;;;;;;;;;13.61;61.54;98579.06;5120888;27;19920;-65
2023/11/15 07:27:46;;;;;;;;;;;;;;;14.52;62.35;98564.75;5066941;28;19926;-66
2023/11/15 07:30:13;;;;;;;;;;;;;;;14.95;60.88;98569.81;5084608;28;19928;-66
2023/11/15 07:32:39;;;;;;;;;;;;;;;14.68;59.61;98566.66;5090326;28;19949;-66
2023/11/15 07:35:05;;;;;;;;;;;;;;;14.79;59.74;98571.44;5047398;28;19919;-65
2023/11/15 07:37:31;;;;;;;;;;;;;;;14.49;59.39;98577.09;5086114;28;19923;-66
2023/11/15 07:39:57;;;;;;;;;;;;;;;14.13;59.20;98576.91;5069156;28;19927;-65
2023/11/15 07:42:24;;;;;;;;;;;;;;;14.03;59.92;98587.81;5085118;28;19935;-66
2023/11/15 07:44:50;;;;;;;;;;;;;;;14.04;59.59;98590.34;5075442;28;20026;-65
2023/11/15 07:47:17;;;;;;;;;;;;;;;14.33;59.39;98595.28;5074595;28;19919;-66
2023/11/15 07:49:43;;;;;;;;;;;;;;;14.24;58.49;98599.97;5084061;28;19977;-66
2023/11/15 07:52:10;;;;;;;;;;;;;;;14.83;59.20;98591.34;5120413;27;19919;-66
2023/11/15 07:54:37;;;;;;;;;;;;;;;15.96;59.13;98586.84;5087107;28;19928;-66
2023/11/15 07:57:03;;;;;;;;;;;;;;;16.63;57.17;98583.44;5085017;28;19928;-66
2023/11/15 07:59:28;;;;;;;;;;;;;;;17.17;56.26;98591.06;5051533;28;19968;-67
2023/11/15 08:01:54;;;;;;;;;;;;;;;17.07;54.45;98589.00;5082079;28;20064;-66
2023/11/15 08:04:21;;;;;;;;;;;;;;;17.17;55.65;98585.78;5051811;28;20023;-66
2023/11/15 08:07:05;;;;;;;;;;;;;;;17.53;53.80;98590.88;5087268;28;20431;-66
2023/11/15 08:15:56;;;;;;;;;;;;;;;16.46;51.35;98599.22;5083937;28;20045;-65
2023/11/15 08:21:44;;;;;;;;;;;;;;;18.49;53.38;98594.06;5087422;28;19920;-67
2023/11/15 08:24:28;;;;;;;;;;;;;;;19.62;52.04;98593.22;5090974;28;20427;-66
2023/11/15 08:26:55;;;;;;;;;;;;;;;19.63;48.84;98595.78;5102153;28;19920;-67
2023/11/15 08:29:21;;;;;;;;;;;;;;;18.72;48.70;98602.34;5083296;28;20455;-68
2023/11/15 08:35:10;;;;;;;;;;;;;;;17.12;49.72;98602.75;5090599;28;19951;-67
2023/11/15 08:38:12;;;;;;;;;;;;;;;15.58;50.27;98605.28;5103604;27;19928;-67
2023/11/15 08:41:18;;;;;;;;;;;;;;;14.36;49.45;98619.53;5092812;28;19924;-65
2023/11/15 08:52:54;;;;;;;;;;;;;;;11.37;53.40;98633.00;5097489;28;19924;-67
2023/11/15 09:00:49;;;;;;;;;;;;;;;10.57;54.17;98633.56;5092104;28;19997;-66
2023/11/15 09:03:34;;;;;;;;;;;;;;;10.57;53.95;98630.97;5077696;28;19927;-66
2023/11/15 09:06:37;;;;;;;;;;;;;;;10.55;53.82;98631.88;5090870;28;19928;-66
2023/11/15 09:09:05;;;;;;;;;;;;;;;10.34;53.79;98609.00;5095868;28;19931;-65
2023/11/15 09:14:16;;;;;;;;;;;;;;;10.35;54.03;98640.19;5099346;28;19924;-65
2023/11/15 09:17:00;;;;;;;;;;;;;;;10.14;54.29;98644.19;5095581;28;19930;-63
2023/11/15 09:22:34;;;;;;;;;;;;;;;9.76;54.29;98651.19;5092166;28;20130;-65
2023/11/15 09:31:07;;;;;;;;;;;;;;;9.14;54.72;98655.19;5088284;28;19924;-66
2023/11/15 09:34:11;;;;;;;;;;;;;;;9.18;54.67;98657.66;5076268;28;20034;-67
2023/11/15 09:42:47;;;;;;;;;;;;;;;8.51;54.43;98662.44;5073859;28;19927;-66
2023/11/15 09:48:57;;;;;;;;;;;;;;;8.54;55.99;98665.00;5092229;28;19923;-68
2023/11/15 09:54:27;;;;;;;;;;;;;;;8.56;53.92;98660.63;5128466;27;19920;-66
2023/11/15 10:00:33;;;;;;;;;;;;;;;8.09;55.73;98665.75;5093088;28;20004;-66
2023/11/15 10:06:24;;;;;;;;;;;;;;;7.77;55.81;98675.78;5091215;28;19967;-67
2023/11/15 10:08:53;;;;;;;;;;;;;;;7.40;55.75;98678.88;5073168;28;20397;-66
2023/11/15 10:11:38;;;;;;;;;;;;;;;7.21;56.07;98680.88;5080855;28;19934;-67
2023/11/15 10:14:22;;;;;;;;;;;;;;;7.00;56.65;98684.56;5089536;28;19962;-65
2023/11/15 10:16:49;;;;;;;;;;;;;;;7.01;56.67;98696.63;5075914;28;19920;-65
2023/11/15 10:22:56;;;;;;;;;;;;;;;7.05;57.04;98681.06;5127364;27;19946;-66
2023/11/15 10:25:54;;;;;;;;;;;;;;;7.00;56.84;98685.44;5092253;28;19924;-65
2023/11/15 10:28:26;;;;;;;;;;;;;;;6.86;56.87;98688.19;5090733;28;20067;-67
2023/11/15 10:31:05;;;;;;;;;;;;;;;6.73;56.79;98694.38;5059025;28;20027;-66
2023/11/15 10:33:50;;;;;;;;;;;;;;;6.61;57.32;98691.03;5080970;28;19927;-67
2023/11/15 10:36:35;;;;;;;;;;;;;;;6.48;57.81;98692.06;5086372;28;20492;-66
2023/11/15 10:39:05;;;;;;;;;;;;;;;6.28;56.74;98698.28;5077188;28;19968;-66
2023/11/15 10:41:52;;;;;;;;;;;;;;;6.14;57.78;98698.38;5089145;28;19920;-66
2023/11/15 10:47:22;;;;;;;;;;;;;;;6.07;58.28;98704.47;5096088;28;20291;-68
2023/11/15 10:49:53;;;;;;;;;;;;;;;6.11;58.17;98697.53;5086121;28;19927;-69
2023/11/15 10:52:21;;;;;;;;;;;;;;;6.15;58.92;98702.69;5088361;28;20496;-67
2023/11/15 10:55:06;;;;;;;;;;;;;;;6.16;58.73;98694.06;5092042;28;20297;-68
2023/11/15 11:03:19;;;;;;;;;;;;;;;6.33;58.69;98711.13;5097246;28;20074;-68
2023/11/15 11:05:57;;;;;;;;;;;;;;;6.27;59.06;98706.00;5072710;28;20022;-68
2023/11/15 11:17:47;;;;;;;;;;;;;;;6.22;59.01;98711.22;5087099;28;19924;-67
2023/11/15 11:20:26;;;;;;;;;;;;;;;5.99;59.14;98704.50;5105370;27;19924;-67
2023/11/15 11:26:34;;;;;;;;;;;;;;;5.77;58.92;98718.41;5090822;28;19931;-66
2023/11/15 11:29:02;;;;;;;;;;;;;;;5.69;59.51;98714.16;5071772;28;19924;-67
2023/11/15 11:32:31;;;;;;;;;;;;;;;5.72;59.53;98713.31;5094499;28;20413;-67
2023/11/15 11:38:38;;;;;;;;;;;;;;;5.61;60.39;98723.69;5091296;28;19930;-70
2023/11/15 11:41:04;;;;;;;;;;;;;;;5.57;60.06;98715.09;5090527;28;19928;-68
2023/11/15 11:46:17;;;;;;;;;;;;;;;5.67;60.32;98723.63;5087830;28;19968;-70
2023/11/15 11:49:02;;;;;;;;;;;;;;;5.64;60.93;98726.22;5091624;28;20385;-70
2023/11/15 11:51:50;;;;;;;;;;;;;;;5.65;60.75;98720.19;5091002;28;19943;-70
2023/11/15 11:57:24;;;;;;;;;;;;;;;5.49;60.80;98726.31;5092966;28;19978;-71
2023/11/15 12:00:13;;;;;;;;;;;;;;;5.35;59.43;98729.84;5075850;28;19920;-69
2023/11/15 12:03:16;;;;;;;;;;;;;;;5.26;61.36;98725.59;5087785;28;19927;-70
2023/11/15 12:09:03;;;;;;;;;;;;;;;4.89;61.11;98737.75;5092046;28;19920;-68
2023/11/15 12:11:48;;;;;;;;;;;;;;;4.83;61.86;98730.91;5073624;28;19930;-69
2023/11/15 12:14:15;;;;;;;;;;;;;;;4.87;61.97;98736.91;5088110;28;19981;-69
2023/11/15 12:16:59;;;;;;;;;;;;;;;4.84;62.35;98732.63;5110363;27;19931;-71
2023/11/15 12:19:26;;;;;;;;;;;;;;;4.75;61.88;98733.47;5077208;28;19924;-70
2023/11/15 12:28:30;;;;;;;;;;;;;;;4.47;62.46;98743.84;5122359;27;20023;-69
2023/11/15 12:31:15;;;;;;;;;;;;;;;4.64;62.83;98735.22;5108800;27;19963;-72
2023/11/15 12:33:43;;;;;;;;;;;;;;;4.81;63.40;98733.47;5090173;28;19970;-71
2023/11/15 12:36:11;;;;;;;;;;;;;;;4.95;63.69;98735.16;5066682;28;19920;-72
2023/11/15 12:38:58;;;;;;;;;;;;;;;5.02;63.37;98739.41;5087921;28;19919;-69
2023/11/15 12:44:49;;;;;;;;;;;;;;;4.93;63.26;98739.47;5090469;28;19920;-77
2023/11/15 12:47:16;;;;;;;;;;;;;;;4.89;63.54;98748.06;5073081;28;20385;-71
2023/11/15 12:52:46;;;;;;;;;;;;;;;4.99;63.63;98752.31;5091670;28;20385;-71
2023/11/15 12:55:49;;;;;;;;;;;;;;;5.08;63.50;98762.63;5089406;28;20455;-72
2023/11/15 13:01:41;;;;;;;;;;;;;;;5.02;63.05;98767.78;5091500;28;19920;-72
2023/11/15 13:04:07;;;;;;;;;;;;;;;4.93;63.16;98766.09;5107622;28;19924;-72
2023/11/15 13:06:52;;;;;;;;;;;;;;;4.90;63.37;98775.56;5061177;28;19931;-69
2023/11/15 13:09:56;;;;;;;;;;;;;;;4.86;63.53;98774.69;5089747;28;19919;-71
2023/11/15 13:12:23;;;;;;;;;;;;;;;4.79;63.46;98770.44;5089310;28;19920;-70
2023/11/15 13:14:48;;;;;;;;;;;;;;;4.78;64.05;98773.88;5089967;28;19920;-70
2023/11/15 13:17:14;;;;;;;;;;;;;;;4.73;64.26;98776.47;5075065;28;19957;-67
2023/11/15 13:22:49;;;;;;;;;;;;;;;4.58;64.46;98781.59;5091383;28;20322;-68
2023/11/15 13:25:18;;;;;;;;;;;;;;;4.62;64.00;98783.34;5097524;28;19927;-69
2023/11/15 13:28:09;;;;;;;;;;;;;;;4.61;64.16;98784.19;5094998;28;19959;-70
2023/11/15 13:30:36;;;;;;;;;;;;;;;4.59;64.19;98788.47;5077220;28;20015;-66
2023/11/15 13:33:21;;;;;;;;;;;;;;;4.53;63.84;98787.63;5059830;28;19920;-70
2023/11/15 13:39:32;;;;;;;;;;;;;;;4.26;64.58;98785.06;5095805;28;19927;-68
2023/11/15 13:51:32;;;;;;;;;;;;;;;4.20;65.09;98791.91;5108134;27;19928;-69
2023/11/15 14:08:52;;;;;;;;;;;;;;;3.84;66.16;98801.31;5098135;28;19920;-70
2023/11/15 14:11:18;;;;;;;;;;;;;;;3.87;65.54;98798.72;5124675;27;19946;-68
2023/11/15 14:13:43;;;;;;;;;;;;;;;3.81;65.62;98798.72;5095513;28;19954;-69
2023/11/15 14:30:51;;;;;;;;;;;;;;;3.75;66.41;98814.16;5095320;28;19924;-68
2023/11/15 14:33:17;;;;;;;;;;;;;;;3.78;66.53;98816.72;5125584;27;19920;-71
2023/11/15 14:39:09;;;;;;;;;;;;;;;3.55;66.55;98817.50;5096778;28;19977;-69
2023/11/15 14:41:56;;;;;;;;;;;;;;;3.45;66.09;98816.63;5105402;27;20029;-70
2023/11/15 14:44:22;;;;;;;;;;;;;;;3.38;66.47;98806.31;5098267;28;19920;-70
2023/11/15 14:46:48;;;;;;;;;;;;;;;3.24;66.01;98811.38;5093784;28;19920;-68
2023/11/15 14:49:32;;;;;;;;;;;;;;;3.12;66.80;98812.16;5096842;28;20523;-69
2023/11/15 14:58:05;;;;;;;;;;;;;;;2.82;66.94;98826.53;5096710;28;20381;-70
2023/11/15 15:00:34;;;;;;;;;;;;;;;2.82;66.98;98821.41;5078961;28;19927;-68
2023/11/15 15:03:19;;;;;;;;;;;;;;;2.81;67.41;98825.69;5095590;28;20018;-70
2023/11/15 15:05:46;;;;;;;;;;;;;;;2.82;67.68;98826.53;5096305;28;19935;-69
2023/11/15 15:11:34;;;;;;;;;;;;;;;2.86;67.44;98828.28;5103282;28;19928;-68
2023/11/15 15:14:19;;;;;;;;;;;;;;;2.89;68.06;98832.56;5103011;28;20010;-67
2023/11/15 15:19:33;;;;;;;;;;;;;;;2.92;67.79;98833.47;5096559;28;20302;-70
2023/11/15 15:30:53;;;;;;;;;;;;;;;2.99;67.97;98842.94;5093941;28;19938;-68
2023/11/15 15:33:37;;;;;;;;;;;;;;;2.97;67.94;98847.22;5106509;27;19927;-70
2023/11/15 15:39:26;;;;;;;;;;;;;;;2.87;68.26;98850.56;5096805;28;20357;-71
2023/11/15 15:41:51;;;;;;;;;;;;;;;2.78;68.17;98853.06;5109677;27;19946;-70
2023/11/15 15:44:22;;;;;;;;;;;;;;;2.68;68.46;98858.16;5094307;28;19927;-71
2023/11/15 15:47:07;;;;;;;;;;;;;;;2.65;68.12;98864.97;5084022;28;20317;-68
2023/11/15 15:58:32;;;;;;;;;;;;;;;2.27;68.62;98863.78;5093856;28;20305;-69
2023/11/15 16:01:17;;;;;;;;;;;;;;;2.19;68.50;98861.13;5093871;28;20060;-67
2023/11/15 16:03:43;;;;;;;;;;;;;;;2.11;68.96;98860.19;5091448;28;19946;-70
2023/11/15 16:09:31;;;;;;;;;;;;;;;1.99;68.85;98865.22;5082667;28;19919;-69
2023/11/15 16:15:19;;;;;;;;;;;;;;;1.92;69.08;98862.56;5094216;28;20065;-69
2023/11/15 16:23:58;;;;;;;;;;;;;;;1.94;69.26;98862.56;5093905;28;20298;-68
2023/11/15 16:29:46;;;;;;;;;;;;;;;1.86;69.54;98865.06;5089700;28;20000;-71
2023/11/15 16:32:21;;;;;;;;;;;;;;;1.79;69.18;98871.81;5089885;28;19920;-71
2023/11/15 16:35:08;;;;;;;;;;;;;;;1.69;69.34;98862.28;5127418;27;19924;-67
2023/11/15 16:37:40;;;;;;;;;;;;;;;1.62;68.99;98860.50;5091624;28;19972;-67
2023/11/15 16:40:07;;;;;;;;;;;;;;;1.54;69.19;98872.38;5088595;28;19924;-68